Time;durP1;ratioP1;P1;durP2;ratioP2;P2;SDS_P1;SDS_P2;PMS_P1;PMS_P2;Temp;Humidity;BMP_temperature;BMP_pressure;BME280_temperature;BME280_humidity;BME280_pressure;Samples;Min_cycle;Max_cycle;Signal;HPM_P1;HPM_P2
2021/07/04 00:01:12;;;;;;;11.83;10.57;;;18.20;26.90;;;;;;5042769;28;20196;-74
2021/07/04 00:03:38;;;;;;;11.33;9.43;;;18.30;28.60;;;;;;5043132;28;20537;-74
2021/07/04 00:06:04;;;;;;;12.70;10.10;;;18.30;15.30;;;;;;5050094;28;20456;-74
2021/07/04 00:08:30;;;;;;;17.27;9.60;;;18.40;17.50;;;;;;5048545;28;20708;-74
2021/07/04 00:11:02;;;;;;;10.80;9.53;;;18.40;15.30;;;;;;5054088;28;20464;-74
2021/07/04 00:13:30;;;;;;;13.10;9.23;;;18.40;19.30;;;;;;5047854;28;20188;-74
2021/07/04 00:15:57;;;;;;;9.73;8.20;;;18.40;43.60;;;;;;5041220;28;20452;-74
2021/07/04 00:18:25;;;;;;;11.13;9.60;;;18.40;40.60;;;;;;5042400;28;20450;-74
2021/07/04 00:20:53;;;;;;;14.07;10.37;;;18.40;53.70;;;;;;5041644;28;20213;-74
2021/07/04 00:23:19;;;;;;;10.53;9.23;;;18.50;68.10;;;;;;5054074;28;20449;-74
2021/07/04 00:25:46;;;;;;;11.63;10.53;;;18.40;93.40;;;;;;5049820;28;21453;-74
2021/07/04 00:28:13;;;;;;;12.87;10.70;;;18.40;99.90;;;;;;5049871;28;20499;-74
2021/07/04 00:30:39;;;;;;;11.57;10.40;;;18.30;96.10;;;;;;5039026;28;20594;-74
2021/07/04 00:33:05;;;;;;;15.00;12.20;;;18.30;71.10;;;;;;5040174;28;20927;-74
2021/07/04 00:35:31;;;;;;;13.07;11.23;;;18.40;49.70;;;;;;5054372;28;21044;-74
2021/07/04 00:37:56;;;;;;;14.37;12.57;;;18.40;37.80;;;;;;5043480;28;20772;-74
2021/07/04 00:40:24;;;;;;;15.93;13.87;;;18.40;31.60;;;;;;5035596;28;20498;-74
2021/07/04 00:42:50;;;;;;;14.13;12.73;;;18.40;13.90;;;;;;5045665;28;20179;-75
2021/07/04 00:45:19;;;;;;;14.10;12.60;;;18.30;13.20;;;;;;5042042;28;21697;-74
2021/07/04 00:47:46;;;;;;;12.47;11.10;;;18.40;28.50;;;;;;5039764;28;20444;-74
2021/07/04 00:50:12;;;;;;;13.13;11.43;;;18.40;51.30;;;;;;5047992;28;20487;-74
2021/07/04 00:52:40;;;;;;;15.77;12.90;;;18.30;55.50;;;;;;5040576;28;20436;-74
2021/07/04 00:55:07;;;;;;;14.70;13.13;;;18.30;99.90;;;;;;5048022;28;20538;-74
2021/07/04 00:57:34;;;;;;;14.97;13.37;;;18.30;99.90;;;;;;5044632;28;20495;-75
2021/07/04 01:00:00;;;;;;;17.47;13.17;;;18.30;99.20;;;;;;5042990;28;20441;-75
2021/07/04 01:02:27;;;;;;;17.37;12.63;;;18.30;98.90;;;;;;5040776;28;20473;-74
2021/07/04 01:04:54;;;;;;;15.33;13.63;;;18.30;99.90;;;;;;5041555;28;20475;-74
2021/07/04 01:07:22;;;;;;;14.67;12.77;;;18.30;99.90;;;;;;5059643;28;20437;-74
2021/07/04 01:09:48;;;;;;;13.40;11.90;;;18.30;99.90;;;;;;5038358;28;20622;-74
2021/07/04 01:12:14;;;;;;;15.67;12.30;;;18.20;99.90;;;;;;5042960;28;20449;-74
2021/07/04 01:14:40;;;;;;;17.53;13.87;;;18.30;99.90;;;;;;5045656;28;20523;-74
2021/07/04 01:17:06;;;;;;;16.23;12.63;;;18.30;99.90;;;;;;5045766;28;20191;-74
2021/07/04 01:19:33;;;;;;;15.60;13.10;;;18.20;99.90;;;;;;5040470;28;20739;-74
2021/07/04 01:22:03;;;;;;;13.30;12.10;;;18.30;99.90;;;;;;5036932;28;21220;-74
2021/07/04 01:24:31;;;;;;;14.33;11.90;;;18.30;99.90;;;;;;5045717;28;20821;-74
2021/07/04 01:26:58;;;;;;;15.50;12.33;;;18.30;99.90;;;;;;5046388;28;20471;-74
2021/07/04 01:29:24;;;;;;;16.60;13.93;;;18.30;99.90;;;;;;5050552;28;20440;-74
2021/07/04 01:31:50;;;;;;;15.50;12.50;;;18.30;99.90;;;;;;5040033;28;20950;-74
2021/07/04 01:34:17;;;;;;;13.50;12.07;;;18.30;99.90;;;;;;5045707;28;20440;-75
2021/07/04 01:36:43;;;;;;;14.07;12.37;;;18.30;99.90;;;;;;5045352;28;20492;-74
2021/07/04 01:39:11;;;;;;;13.60;12.20;;;18.30;99.90;;;;;;5039775;28;24486;-74
2021/07/04 01:41:43;;;;;;;13.00;11.67;;;18.20;99.90;;;;;;5041151;28;20486;-74
2021/07/04 01:44:16;;;;;;;14.23;12.47;;;18.20;99.90;;;;;;5039970;28;20442;-74
2021/07/04 01:46:42;;;;;;;15.17;13.67;;;18.30;99.90;;;;;;5040381;28;20508;-74
2021/07/04 01:49:11;;;;;;;13.90;12.43;;;18.20;99.90;;;;;;5040483;28;20815;-74
2021/07/04 01:51:37;;;;;;;16.27;13.90;;;18.20;99.90;;;;;;5047292;28;20456;-75
2021/07/04 01:54:06;;;;;;;14.60;13.00;;;18.10;99.90;;;;;;5049844;28;20444;-75
2021/07/04 01:56:36;;;;;;;17.23;13.27;;;18.10;99.90;;;;;;5039173;28;21164;-75
2021/07/04 01:59:04;;;;;;;16.00;14.30;;;18.00;99.90;;;;;;5043491;28;20954;-74
2021/07/04 02:01:48;;;;;;;18.13;13.60;;;18.10;99.90;;;;;;5033982;28;20746;-74
2021/07/04 02:04:14;;;;;;;15.83;14.23;;;18.10;99.90;;;;;;5048284;28;20549;-74
2021/07/04 02:06:43;;;;;;;16.53;12.97;;;18.10;99.90;;;;;;5048550;28;20490;-74
2021/07/04 02:09:11;;;;;;;16.63;13.37;;;18.10;99.90;;;;;;5052134;28;21075;-74
2021/07/04 02:11:38;;;;;;;15.10;13.60;;;18.10;99.90;;;;;;5041260;28;20437;-75
2021/07/04 02:14:08;;;;;;;16.07;14.47;;;18.00;99.90;;;;;;5043818;28;20444;-74
2021/07/04 02:16:44;;;;;;;24.93;14.53;;;17.90;99.90;;;;;;5044224;28;20440;-75
2021/07/04 02:19:34;;;;;;;20.67;16.37;;;17.90;99.90;;;;;;5031458;28;20515;-74
2021/07/04 02:22:18;;;;;;;17.80;15.90;;;17.80;99.90;;;;;;5037999;28;20483;-74
2021/07/04 02:25:07;;;;;;;17.10;14.23;;;17.80;99.90;;;;;;5048498;28;20561;-75
2021/07/04 02:27:35;;;;;;;16.20;14.50;;;17.80;99.90;;;;;;5050968;28;20932;-74
2021/07/04 02:30:18;;;;;;;15.63;13.73;;;17.90;99.90;;;;;;5045370;28;20878;-74
2021/07/04 02:32:50;;;;;;;20.23;14.90;;;18.10;99.90;;;;;;5043559;28;24227;-74
2021/07/04 02:35:17;;;;;;;17.67;13.80;;;18.00;99.90;;;;;;5040997;28;20460;-74
2021/07/04 02:37:43;;;;;;;16.90;14.47;;;18.00;99.90;;;;;;5045490;28;20470;-75
2021/07/04 02:40:14;;;;;;;15.90;14.30;;;18.10;99.90;;;;;;5048010;28;20454;-74
2021/07/04 02:42:43;;;;;;;17.73;13.70;;;18.10;98.90;;;;;;5037348;28;20450;-75
2021/07/04 02:45:10;;;;;;;15.97;13.43;;;18.00;99.90;;;;;;5042580;28;20520;-75
2021/07/04 02:47:36;;;;;;;14.70;13.17;;;18.00;99.90;;;;;;5043697;28;21265;-74
2021/07/04 02:50:04;;;;;;;16.33;13.13;;;18.00;99.90;;;;;;5047727;28;20457;-74
2021/07/04 02:52:32;;;;;;;18.53;14.70;;;18.00;99.90;;;;;;5042897;28;20442;-74
2021/07/04 02:54:58;;;;;;;16.50;14.77;;;18.00;99.90;;;;;;5038550;28;20436;-74
2021/07/04 02:57:32;;;;;;;16.90;13.63;;;17.90;99.90;;;;;;5038201;28;20298;-74
2021/07/04 03:00:05;;;;;;;18.70;14.47;;;17.90;99.90;;;;;;5043537;28;20478;-74
2021/07/04 03:02:34;;;;;;;13.97;12.57;;;17.90;99.90;;;;;;5038115;28;20442;-74
2021/07/04 03:04:59;;;;;;;16.47;13.83;;;17.80;99.90;;;;;;5044389;28;20516;-74
2021/07/04 03:07:26;;;;;;;14.67;13.07;;;17.80;99.90;;;;;;5045167;28;20464;-74
2021/07/04 03:09:53;;;;;;;19.70;14.00;;;17.80;99.90;;;;;;5050542;28;20496;-74
2021/07/04 03:12:23;;;;;;;13.40;12.00;;;17.80;99.90;;;;;;5044484;28;20522;-74
2021/07/04 03:14:49;;;;;;;17.63;14.80;;;17.80;99.90;;;;;;5051017;28;20474;-74
2021/07/04 03:17:16;;;;;;;19.17;15.03;;;17.80;99.90;;;;;;5045303;28;20816;-74
2021/07/04 03:19:43;;;;;;;17.73;15.90;;;17.80;99.90;;;;;;5042813;28;20449;-74
2021/07/04 03:22:09;;;;;;;16.97;15.27;;;17.90;99.90;;;;;;5040888;28;20434;-74
2021/07/04 03:24:40;;;;;;;19.23;15.60;;;17.90;99.90;;;;;;5049733;28;20744;-74
2021/07/04 03:27:08;;;;;;;15.40;13.80;;;17.90;99.90;;;;;;5036328;28;20810;-74
2021/07/04 03:29:35;;;;;;;18.33;16.27;;;18.00;99.90;;;;;;5040328;28;20846;-75
2021/07/04 03:32:02;;;;;;;18.70;15.60;;;17.90;99.90;;;;;;5034891;28;20885;-74
2021/07/04 03:34:28;;;;;;;20.43;16.10;;;17.90;99.90;;;;;;5048797;28;21057;-74
2021/07/04 03:36:54;;;;;;;16.90;15.17;;;17.90;99.90;;;;;;5041713;28;21458;-74
2021/07/04 03:39:20;;;;;;;18.67;15.53;;;18.00;99.90;;;;;;5042151;28;20453;-74
2021/07/04 03:41:48;;;;;;;19.13;15.93;;;18.00;99.90;;;;;;5041207;28;20446;-74
2021/07/04 03:44:13;;;;;;;16.60;14.90;;;17.90;99.90;;;;;;5034927;28;20447;-74
2021/07/04 03:46:42;;;;;;;19.00;15.70;;;18.00;99.90;;;;;;5043719;28;20440;-74
2021/07/04 03:49:08;;;;;;;20.53;16.40;;;17.90;99.90;;;;;;5041365;28;20448;-74
2021/07/04 03:51:42;;;;;;;18.80;15.33;;;17.90;99.90;;;;;;5044705;28;20462;-74
2021/07/04 03:54:11;;;;;;;23.33;17.57;;;17.90;99.90;;;;;;5035387;28;20436;-74
2021/07/04 03:56:37;;;;;;;20.90;15.70;;;17.80;99.90;;;;;;5042891;28;20929;-74
2021/07/04 03:59:06;;;;;;;21.20;15.97;;;17.70;99.90;;;;;;5047589;28;20448;-74
2021/07/04 04:01:32;;;;;;;18.23;14.97;;;17.60;99.90;;;;;;5031377;28;20795;-74
2021/07/04 04:03:58;;;;;;;19.90;16.50;;;17.60;99.90;;;;;;5039358;28;20414;-74
2021/07/04 04:06:24;;;;;;;18.00;14.80;;;17.50;99.90;;;;;;5048509;28;20470;-74
2021/07/04 04:09:08;;;;;;;18.33;16.43;;;17.40;99.90;;;;;;5049919;28;20436;-75
2021/07/04 04:11:41;;;;;;;20.23;14.43;;;17.40;99.90;;;;;;5048282;28;20461;-74
2021/07/04 04:14:12;;;;;;;18.40;15.20;;;17.40;99.90;;;;;;5055975;28;20436;-74
2021/07/04 04:16:41;;;;;;;17.43;15.40;;;17.30;99.90;;;;;;5064890;28;20448;-74
2021/07/04 04:19:07;;;;;;;19.83;15.97;;;17.40;99.90;;;;;;5061537;28;20438;-74
2021/07/04 04:21:33;;;;;;;20.37;15.10;;;17.40;99.90;;;;;;5053539;28;20970;-74
2021/07/04 04:24:04;;;;;;;19.60;16.70;;;17.40;1.00;;;;;;5049101;28;20260;-74
2021/07/04 04:26:30;;;;;;;17.77;15.87;;;17.40;1.00;;;;;;5044860;28;21356;-74
2021/07/04 04:28:58;;;;;;;23.43;16.97;;;17.40;1.00;;;;;;5052058;28;20446;-74
2021/07/04 04:31:24;;;;;;;18.83;15.70;;;17.40;1.00;;;;;;5047084;28;21029;-75
2021/07/04 04:33:52;;;;;;;18.60;16.27;;;17.50;1.00;;;;;;5052876;28;20536;-74
2021/07/04 04:36:17;;;;;;;18.77;15.17;;;17.50;1.00;;;;;;5051317;28;20480;-74
2021/07/04 04:38:43;;;;;;;16.47;14.77;;;17.50;1.00;;;;;;5044028;28;20195;-74
2021/07/04 04:41:09;;;;;;;16.07;14.30;;;17.60;1.00;;;;;;5050864;28;20188;-74
2021/07/04 04:43:34;;;;;;;17.50;15.23;;;17.60;1.00;;;;;;5048746;28;20603;-74
2021/07/04 04:46:00;;;;;;;18.47;16.47;;;17.70;1.00;;;;;;5035635;28;20213;-74
2021/07/04 04:48:25;;;;;;;16.73;14.93;;;17.70;1.00;;;;;;5034273;28;20184;-74
2021/07/04 04:50:51;;;;;;;18.07;16.10;;;17.70;1.00;;;;;;5046128;28;20653;-74
2021/07/04 04:53:17;;;;;;;18.30;14.60;;;17.70;1.00;;;;;;5043785;28;20560;-74
2021/07/04 04:55:42;;;;;;;19.13;17.20;;;17.80;1.00;;;;;;5040868;28;21346;-74
2021/07/04 04:58:08;;;;;;;16.13;14.47;;;17.80;1.00;;;;;;5043507;28;20221;-74
2021/07/04 05:00:34;;;;;;;20.80;16.23;;;17.90;1.00;;;;;;5039421;28;20262;-74
2021/07/04 05:03:05;;;;;;;21.47;15.67;;;17.90;1.00;;;;;;5034229;28;20340;-74
2021/07/04 05:05:31;;;;;;;17.67;15.20;;;17.90;1.00;;;;;;5035107;28;20353;-74
2021/07/04 05:07:57;;;;;;;17.07;15.37;;;17.80;99.90;;;;;;5037043;28;20740;-74
2021/07/04 05:10:23;;;;;;;18.10;16.20;;;17.80;99.90;;;;;;5041188;28;20862;-74
2021/07/04 05:12:48;;;;;;;17.87;15.10;;;17.90;99.90;;;;;;5029752;28;21134;-74
2021/07/04 05:15:14;;;;;;;21.00;14.40;;;17.90;99.90;;;;;;5024371;28;20257;-74
2021/07/04 05:17:40;;;;;;;19.10;15.23;;;17.90;99.90;;;;;;5036012;28;20209;-74
2021/07/04 05:20:06;;;;;;;19.40;16.70;;;17.90;1.00;;;;;;5033194;28;20187;-74
2021/07/04 05:22:33;;;;;;;17.40;15.60;;;17.90;1.00;;;;;;5041335;28;21006;-74
2021/07/04 05:24:59;;;;;;;19.37;17.43;;;17.90;1.00;;;;;;5032619;28;20477;-74
2021/07/04 05:27:24;;;;;;;17.53;14.43;;;18.00;1.00;;;;;;5030159;28;20966;-74
2021/07/04 05:29:50;;;;;;;20.90;17.47;;;18.00;1.00;;;;;;5026385;28;20184;-73
2021/07/04 05:32:16;;;;;;;19.83;17.67;;;18.10;1.00;;;;;;5032930;28;20642;-73
2021/07/04 05:34:41;;;;;;;22.20;17.80;;;18.30;1.00;;;;;;5030147;28;20198;-73
2021/07/04 05:37:07;;;;;;;17.97;16.17;;;18.30;99.90;;;;;;5033695;28;20213;-73
2021/07/04 05:39:33;;;;;;;19.17;15.93;;;18.30;99.90;;;;;;5031087;28;20669;-73
2021/07/04 05:41:59;;;;;;;18.70;15.73;;;18.30;1.00;;;;;;5039661;28;20863;-74
2021/07/04 05:44:25;;;;;;;19.00;17.07;;;18.30;1.00;;;;;;5033246;28;20187;-75
2021/07/04 05:46:51;;;;;;;18.37;16.03;;;18.40;1.00;;;;;;5035099;28;21166;-74
2021/07/04 05:49:16;;;;;;;19.60;15.37;;;18.40;99.90;;;;;;5032321;28;20192;-74
2021/07/04 05:51:42;;;;;;;18.07;16.17;;;18.40;99.90;;;;;;5038794;28;20200;-74
2021/07/04 05:54:08;;;;;;;17.90;15.97;;;18.40;1.00;;;;;;5033891;28;20305;-74
2021/07/04 05:56:34;;;;;;;18.80;17.00;;;18.40;99.90;;;;;;5035249;28;20179;-74
2021/07/04 05:58:59;;;;;;;24.00;16.50;;;18.30;99.90;;;;;;5036254;28;21419;-74
2021/07/04 06:01:25;;;;;;;19.17;17.10;;;18.30;99.90;;;;;;5024045;28;20241;-74
2021/07/04 06:03:51;;;;;;;22.33;17.27;;;18.20;99.90;;;;;;5028645;28;20236;-74
2021/07/04 06:06:16;;;;;;;19.57;17.57;;;18.30;99.90;;;;;;5034696;28;20222;-74
2021/07/04 06:08:42;;;;;;;19.70;16.43;;;18.20;99.90;;;;;;5037769;28;20205;-74
2021/07/04 06:11:08;;;;;;;21.00;18.90;;;18.30;99.90;;;;;;5030444;28;20277;-74
2021/07/04 06:13:33;;;;;;;21.20;19.00;;;18.30;99.90;;;;;;5035819;28;20288;-74
2021/07/04 06:15:59;;;;;;;22.00;19.30;;;18.50;99.90;;;;;;5039168;28;20194;-74
2021/07/04 06:18:25;;;;;;;22.27;19.13;;;18.60;99.90;;;;;;5041476;28;20187;-74
2021/07/04 06:20:51;;;;;;;21.10;18.20;;;18.70;99.90;;;;;;5039555;28;20225;-74
2021/07/04 06:23:17;;;;;;;20.80;16.23;;;18.90;99.90;;;;;;5027285;28;20191;-74
2021/07/04 06:25:42;;;;;;;19.60;16.87;;;19.00;99.90;;;;;;5026945;28;20478;-74
2021/07/04 06:28:08;;;;;;;19.00;16.50;;;19.00;99.90;;;;;;5030049;28;20574;-74
2021/07/04 06:30:34;;;;;;;18.63;16.60;;;19.00;99.90;;;;;;5036474;28;20183;-74
2021/07/04 06:32:59;;;;;;;19.43;17.50;;;19.00;99.90;;;;;;5034377;28;20450;-74
2021/07/04 06:35:25;;;;;;;19.30;16.27;;;18.90;99.90;;;;;;5033972;28;20185;-74
2021/07/04 06:37:51;;;;;;;18.97;16.97;;;18.90;83.10;;;;;;5035850;28;20642;-74
2021/07/04 06:40:17;;;;;;;19.90;16.30;;;18.90;68.70;;;;;;5037322;28;20195;-74
2021/07/04 06:42:43;;;;;;;19.20;16.50;;;18.90;49.80;;;;;;5036359;28;20187;-74
2021/07/04 06:45:10;;;;;;;17.90;16.07;;;18.90;71.50;;;;;;5027022;28;20833;-75
2021/07/04 06:47:47;;;;;;;18.40;16.43;;;19.10;69.20;;;;;;5037669;28;21169;-74
2021/07/04 06:50:15;;;;;;;18.00;15.80;;;19.10;99.90;;;;;;5028916;28;20440;-75
2021/07/04 06:52:41;;;;;;;18.37;15.90;;;19.20;93.30;;;;;;5029910;28;21372;-74
2021/07/04 06:55:08;;;;;;;18.33;15.50;;;19.20;64.10;;;;;;5028738;28;20484;-75
2021/07/04 06:57:34;;;;;;;15.87;13.90;;;19.30;84.10;;;;;;5031086;28;20489;-74
2021/07/04 07:00:09;;;;;;;13.57;12.17;;;19.30;99.00;;;;;;5024506;28;20948;-74
2021/07/04 07:02:36;;;;;;;14.50;13.00;;;19.40;36.30;;;;;;5022541;28;20319;-74
2021/07/04 07:05:03;;;;;;;18.47;12.50;;;19.40;44.40;;;;;;5023764;28;20913;-73
2021/07/04 07:07:28;;;;;;;18.47;16.00;;;19.60;27.50;;;;;;5042718;28;20457;-74
2021/07/04 07:09:54;;;;;;;25.50;19.00;;;19.70;24.80;;;;;;5038376;28;20442;-74
2021/07/04 07:12:20;;;;;;;20.63;13.90;;;19.80;9.90;;;;;;5036940;28;20252;-74
2021/07/04 07:14:46;;;;;;;16.40;12.83;;;20.10;1.00;;;;;;5050439;28;20645;-74
2021/07/04 07:17:12;;;;;;;18.93;10.50;;;20.20;1.00;;;;;;5038013;28;20493;-74
2021/07/04 07:19:38;;;;;;;12.93;11.40;;;20.30;1.00;;;;;;5033872;28;20217;-74
2021/07/04 07:22:08;;;;;;;13.10;11.70;;;20.30;1.00;;;;;;5029076;28;20210;-74
2021/07/04 07:24:34;;;;;;;12.90;11.10;;;20.50;1.00;;;;;;5022924;28;20471;-74
2021/07/04 07:27:00;;;;;;;12.77;11.57;;;20.50;1.00;;;;;;5030667;28;20665;-74
2021/07/04 07:29:26;;;;;;;11.90;10.23;;;20.60;1.00;;;;;;5044964;28;20434;-74
2021/07/04 07:31:52;;;;;;;14.20;11.30;;;20.70;1.00;;;;;;5037940;28;20449;-75
2021/07/04 07:34:17;;;;;;;13.50;10.83;;;20.70;1.00;;;;;;5034670;28;20184;-75
2021/07/04 07:36:43;;;;;;;10.13;8.70;;;20.80;1.00;;;;;;5047975;28;20681;-75
2021/07/04 07:39:09;;;;;;;12.87;9.70;;;20.90;1.00;;;;;;5046501;28;20303;-75
2021/07/04 07:41:41;;;;;;;13.20;10.63;;;21.00;1.00;;;;;;5060482;28;20194;-75
2021/07/04 07:44:07;;;;;;;12.67;10.70;;;20.90;1.00;;;;;;5050582;28;20437;-75
2021/07/04 07:46:33;;;;;;;14.40;10.60;;;21.10;1.00;;;;;;5043247;28;20721;-74
2021/07/04 07:48:58;;;;;;;10.43;9.20;;;21.20;1.00;;;;;;5046715;28;20182;-75
2021/07/04 07:51:41;;;;;;;10.53;9.50;;;21.30;1.00;;;;;;5051804;28;20255;-75
2021/07/04 07:54:10;;;;;;;10.73;9.13;;;21.30;1.00;;;;;;5051853;28;20892;-75
2021/07/04 07:56:36;;;;;;;9.63;8.20;;;21.30;1.00;;;;;;5049273;28;20605;-75
2021/07/04 07:59:01;;;;;;;9.77;8.77;;;21.20;1.00;;;;;;5056547;28;20777;-75
2021/07/04 08:01:27;;;;;;;9.93;8.83;;;21.10;1.00;;;;;;5048336;28;20209;-75
2021/07/04 08:03:57;;;;;;;9.83;8.60;;;21.10;1.00;;;;;;5051840;28;20197;-75
2021/07/04 08:06:23;;;;;;;9.57;8.53;;;21.30;1.00;;;;;;5049992;28;20479;-75
2021/07/04 08:08:48;;;;;;;9.80;8.60;;;21.60;1.00;;;;;;5049564;28;20266;-75
2021/07/04 08:11:19;;;;;;;9.27;8.20;;;21.60;1.00;;;;;;5052017;28;20171;-75
2021/07/04 08:13:44;;;;;;;8.70;7.77;;;21.70;1.00;;;;;;5048583;28;21045;-75
2021/07/04 08:16:10;;;;;;;9.23;8.33;;;21.50;1.00;;;;;;5046523;28;20629;-75
2021/07/04 08:18:36;;;;;;;9.27;7.90;;;21.50;1.00;;;;;;5061362;28;20302;-75
2021/07/04 08:21:02;;;;;;;9.17;7.73;;;21.30;1.00;;;;;;5049679;28;20186;-75
2021/07/04 08:23:27;;;;;;;11.63;8.17;;;21.20;1.00;;;;;;5040191;28;20198;-75
2021/07/04 08:25:53;;;;;;;10.37;8.33;;;21.10;1.00;;;;;;5050369;28;20915;-75
2021/07/04 08:28:19;;;;;;;8.93;7.70;;;21.30;1.00;;;;;;5055848;28;20225;-75
2021/07/04 08:30:46;;;;;;;9.70;8.50;;;21.30;1.00;;;;;;5052462;28;20214;-75
2021/07/04 08:33:12;;;;;;;11.27;8.17;;;21.30;1.00;;;;;;5052004;28;20195;-75
2021/07/04 08:35:37;;;;;;;9.30;7.67;;;21.50;1.00;;;;;;5047964;28;20448;-75
2021/07/04 08:38:04;;;;;;;8.27;7.37;;;21.70;1.00;;;;;;5048621;28;20460;-75
2021/07/04 08:40:30;;;;;;;10.33;6.57;;;22.00;1.00;;;;;;5053481;28;20183;-76
2021/07/04 08:42:57;;;;;;;11.03;7.60;;;22.10;1.00;;;;;;5047947;28;20436;-75
2021/07/04 08:45:23;;;;;;;9.40;8.10;;;22.20;1.00;;;;;;5043201;28;20479;-75
2021/07/04 08:47:48;;;;;;;9.17;7.83;;;22.30;1.00;;;;;;5045493;28;20978;-76
2021/07/04 08:50:14;;;;;;;10.67;7.10;;;22.20;1.00;;;;;;5056776;28;20215;-76
2021/07/04 08:52:41;;;;;;;8.70;7.80;;;22.30;1.00;;;;;;5017852;28;20416;-75
2021/07/04 08:55:08;;;;;;;8.40;7.50;;;22.30;1.00;;;;;;5039826;28;20186;-75
2021/07/04 08:57:34;;;;;;;8.40;6.80;;;22.20;1.00;;;;;;5051182;28;20973;-76
2021/07/04 09:00:00;;;;;;;9.60;7.77;;;22.00;1.00;;;;;;5045774;28;20450;-75
2021/07/04 09:02:32;;;;;;;10.47;7.00;;;22.00;1.00;;;;;;5027669;28;24788;-75
2021/07/04 09:05:01;;;;;;;11.60;7.43;;;22.00;1.00;;;;;;5057992;28;20489;-75
2021/07/04 09:07:28;;;;;;;7.90;7.20;;;21.90;1.00;;;;;;5053440;28;20515;-75
2021/07/04 09:09:59;;;;;;;8.20;7.10;;;21.90;1.00;;;;;;5045321;28;20449;-76
2021/07/04 09:12:45;;;;;;;9.10;7.17;;;22.00;1.00;;;;;;5054124;28;20453;-75
2021/07/04 09:15:28;;;;;;;8.67;7.77;;;22.30;1.00;;;;;;5055740;28;20453;-76
2021/07/04 09:17:59;;;;;;;8.40;7.60;;;22.30;1.00;;;;;;5048706;28;20605;-75
2021/07/04 09:20:31;;;;;;;7.70;6.77;;;22.30;1.00;;;;;;5050251;28;20442;-76
2021/07/04 09:22:59;;;;;;;8.20;6.07;;;22.20;1.00;;;;;;5056638;28;20453;-75
2021/07/04 09:25:30;;;;;;;8.23;7.33;;;22.20;1.00;;;;;;5046239;28;20514;-75
2021/07/04 09:28:07;;;;;;;9.90;6.83;;;22.10;1.00;;;;;;5047306;28;20445;-76
2021/07/04 09:30:35;;;;;;;7.90;7.10;;;22.00;1.00;;;;;;5043601;28;20477;-75
2021/07/04 09:33:13;;;;;;;7.47;6.53;;;21.90;1.00;;;;;;5048406;28;20461;-76
2021/07/04 09:35:39;;;;;;;8.07;7.03;;;21.90;1.00;;;;;;5039642;28;20460;-75
2021/07/04 09:38:16;;;;;;;11.90;7.27;;;21.80;1.00;;;;;;5045501;28;20466;-75
2021/07/04 09:40:41;;;;;;;7.83;7.07;;;21.70;1.00;;;;;;5051445;28;20475;-77
2021/07/04 09:43:14;;;;;;;11.87;7.17;;;21.70;1.00;;;;;;5048705;28;20466;-76
2021/07/04 09:46:14;;;;;;;7.80;6.17;;;21.60;1.00;;;;;;5038743;28;20222;-75
2021/07/04 09:48:42;;;;;;;7.83;7.10;;;21.70;1.00;;;;;;5055398;28;20441;-75
2021/07/04 09:51:26;;;;;;;7.80;7.10;;;21.70;1.00;;;;;;5043461;28;20983;-75
2021/07/04 09:53:57;;;;;;;8.33;7.53;;;21.90;1.00;;;;;;5048627;28;20437;-76
2021/07/04 09:56:36;;;;;;;9.20;8.30;;;22.30;1.00;;;;;;5044945;28;20552;-75
2021/07/04 09:59:04;;;;;;;8.20;7.40;;;22.50;1.00;;;;;;5035360;28;20527;-75
2021/07/04 10:01:49;;;;;;;8.07;7.27;;;22.50;1.00;;;;;;5042088;28;20548;-75
2021/07/04 10:04:30;;;;;;;9.70;7.40;;;22.90;1.00;;;;;;5030793;28;20647;-75
2021/07/04 10:06:56;;;;;;;9.23;7.30;;;23.30;1.00;;;;;;5052709;28;20581;-76
2021/07/04 10:09:28;;;;;;;8.37;7.57;;;23.50;1.00;;;;;;5042924;28;20441;-75
2021/07/04 10:11:54;;;;;;;7.77;6.80;;;23.20;1.00;;;;;;5054274;28;20836;-75
2021/07/04 10:14:20;;;;;;;7.67;6.97;;;23.00;1.00;;;;;;5051321;28;20440;-75
2021/07/04 10:16:47;;;;;;;9.07;7.17;;;22.80;1.00;;;;;;5049785;28;20443;-75
2021/07/04 10:19:21;;;;;;;10.23;8.07;;;22.60;1.00;;;;;;5051678;28;20444;-75
2021/07/04 10:22:02;;;;;;;7.17;6.57;;;22.50;1.00;;;;;;5050107;28;20461;-76
2021/07/04 10:24:29;;;;;;;7.93;7.10;;;22.40;1.00;;;;;;5049910;28;20978;-75
2021/07/04 10:26:56;;;;;;;7.90;7.10;;;22.40;1.00;;;;;;5051934;28;20459;-75
2021/07/04 10:29:26;;;;;;;12.43;7.00;;;22.20;1.00;;;;;;5054217;28;20454;-75
2021/07/04 10:31:52;;;;;;;8.33;7.50;;;22.10;1.00;;;;;;5052090;28;20441;-76
2021/07/04 10:34:19;;;;;;;11.00;9.43;;;21.90;1.00;;;;;;5040624;28;21181;-75
2021/07/04 10:37:00;;;;;;;9.63;8.30;;;21.70;1.00;;;;;;5042964;28;20260;-74
2021/07/04 10:39:28;;;;;;;11.60;9.10;;;21.40;1.00;;;;;;5053035;28;20453;-75
2021/07/04 10:41:57;;;;;;;12.73;9.53;;;21.20;1.00;;;;;;5047744;28;20780;-75
2021/07/04 10:44:45;;;;;;;9.73;8.53;;;21.10;1.00;;;;;;5053551;28;20453;-75
2021/07/04 10:47:23;;;;;;;12.60;10.90;;;21.00;1.00;;;;;;5052566;28;20467;-76
2021/07/04 10:49:55;;;;;;;14.33;10.20;;;20.90;1.00;;;;;;5048453;28;20440;-76
2021/07/04 10:52:33;;;;;;;20.43;11.80;;;20.70;58.60;;;;;;5039387;28;20459;-74
2021/07/04 10:54:59;;;;;;;15.07;12.93;;;20.70;99.90;;;;;;5046939;28;20504;-74
2021/07/04 10:57:31;;;;;;;15.93;11.70;;;20.60;99.90;;;;;;5032325;28;20532;-74
2021/07/04 11:00:00;;;;;;;14.60;11.83;;;20.60;99.90;;;;;;5042119;28;20694;-74
2021/07/04 11:02:39;;;;;;;12.80;10.67;;;20.50;99.90;;;;;;5051988;28;20438;-74
2021/07/04 11:05:09;;;;;;;11.73;10.60;;;20.50;99.90;;;;;;5051523;28;20591;-74
2021/07/04 11:07:53;;;;;;;12.80;11.17;;;20.40;99.90;;;;;;5034343;28;20453;-74
2021/07/04 11:10:20;;;;;;;13.53;10.63;;;20.30;99.90;;;;;;5039372;28;20582;-74
2021/07/04 11:12:47;;;;;;;14.90;10.60;;;20.30;99.90;;;;;;5041214;28;20492;-74
2021/07/04 11:15:12;;;;;;;12.07;9.90;;;20.30;99.90;;;;;;5042403;28;20452;-74
2021/07/04 11:17:56;;;;;;;13.20;11.00;;;20.40;99.90;;;;;;5032550;28;20473;-74
2021/07/04 11:20:35;;;;;;;11.90;9.67;;;20.20;99.90;;;;;;5045896;28;20728;-74
2021/07/04 11:23:06;;;;;;;12.37;11.10;;;20.10;99.90;;;;;;5047253;28;20472;-75
2021/07/04 11:25:46;;;;;;;13.60;12.17;;;20.00;99.90;;;;;;5046953;28;20483;-75
2021/07/04 11:28:15;;;;;;;15.20;12.93;;;20.20;1.00;;;;;;5044233;28;20471;-75
2021/07/04 11:31:13;;;;;;;14.03;12.33;;;20.20;1.00;;;;;;5046444;28;20484;-74
2021/07/04 11:33:50;;;;;;;14.57;12.20;;;20.20;1.00;;;;;;5028750;28;20502;-77
2021/07/04 11:36:16;;;;;;;13.40;11.30;;;20.20;99.90;;;;;;5045037;28;20827;-76
2021/07/04 11:39:25;;;;;;;13.07;11.67;;;20.10;99.90;;;;;;5043084;28;20632;-75
2021/07/04 11:41:53;;;;;;;21.30;14.10;;;19.80;99.90;;;;;;5064020;28;20202;-75
2021/07/04 11:44:22;;;;;;;15.23;12.13;;;19.80;1.00;;;;;;5041431;28;20804;-75
2021/07/04 11:46:50;;;;;;;13.20;11.80;;;19.70;99.90;;;;;;5041923;28;21017;-74
2021/07/04 11:49:27;;;;;;;13.50;12.30;;;19.70;1.00;;;;;;5040514;28;21100;-74
2021/07/04 11:51:54;;;;;;;14.40;12.00;;;19.80;1.00;;;;;;5052833;28;20571;-74
2021/07/04 11:54:26;;;;;;;13.87;12.60;;;19.90;99.90;;;;;;5041724;28;20762;-74
2021/07/04 11:59:54;;;;;;;14.30;12.87;;;20.00;1.00;;;;;;5045179;28;20457;-75
2021/07/04 12:02:20;;;;;;;12.87;11.57;;;19.80;5.00;;;;;;5044331;28;20941;-75
2021/07/04 12:04:46;;;;;;;13.80;12.00;;;19.80;1.00;;;;;;5044031;28;21966;-75
2021/07/04 12:07:14;;;;;;;13.00;11.70;;;19.90;1.00;;;;;;5035000;28;21046;-75
2021/07/04 12:09:48;;;;;;;13.40;11.20;;;19.90;1.00;;;;;;5039363;28;20809;-75
2021/07/04 12:12:23;;;;;;;14.00;10.83;;;20.00;99.90;;;;;;5046892;28;20753;-75
2021/07/04 12:15:02;;;;;;;13.00;11.70;;;19.80;99.90;;;;;;5042833;28;20484;-75
2021/07/04 12:17:34;;;;;;;13.03;11.73;;;19.80;1.00;;;;;;5034658;28;20483;-75
2021/07/04 12:20:07;;;;;;;16.17;12.37;;;19.80;1.00;;;;;;5040309;28;20472;-75
2021/07/04 12:22:49;;;;;;;14.83;12.40;;;19.70;1.00;;;;;;5048284;28;20461;-75
2021/07/04 12:25:23;;;;;;;15.07;12.33;;;19.80;99.90;;;;;;5041404;28;20468;-74
2021/07/04 12:27:51;;;;;;;13.17;11.43;;;19.80;1.00;;;;;;5048193;28;20452;-74
2021/07/04 12:30:31;;;;;;;13.43;12.03;;;19.80;1.00;;;;;;5047594;28;20524;-74
2021/07/04 12:33:10;;;;;;;12.07;10.77;;;19.80;1.00;;;;;;5042153;28;20478;-75
2021/07/04 12:35:38;;;;;;;12.73;11.30;;;19.70;1.00;;;;;;5057554;28;20484;-74
2021/07/04 12:38:25;;;;;;;14.83;11.80;;;19.90;1.00;;;;;;5051035;28;20461;-74
2021/07/04 12:40:56;;;;;;;12.93;11.70;;;20.00;99.90;;;;;;5050690;28;20453;-74
2021/07/04 12:43:32;;;;;;;12.57;11.33;;;20.10;1.00;;;;;;5045101;28;20820;-74
2021/07/04 12:46:00;;;;;;;16.13;12.80;;;20.20;99.90;;;;;;5045187;28;20479;-74
2021/07/04 12:48:27;;;;;;;13.50;10.80;;;20.40;1.00;;;;;;5052438;28;20850;-74